Time;durP1;ratioP1;P1;durP2;ratioP2;P2;SDS_P1;SDS_P2;PMS_P1;PMS_P2;Temp;Humidity;BMP_temperature;BMP_pressure;BME280_temperature;BME280_humidity;BME280_pressure;Samples;Min_cycle;Max_cycle;Signal;HPM_P1;HPM_P2
2021/10/07 00:02:18;;;;;;;13.73;10.13;;;25.20;50.40;;;;;;6222581;28;81353;-65
2021/10/07 00:05:19;;;;;;;14.25;10.18;;;25.20;50.40;;;;;;6222831;28;82989;-65
2021/10/07 00:08:19;;;;;;;12.77;9.43;;;25.20;50.40;;;;;;6227323;27;84514;-65
2021/10/07 00:11:20;;;;;;;14.52;9.73;;;25.20;50.30;;;;;;6231535;27;82984;-65
2021/10/07 00:14:20;;;;;;;11.07;9.40;;;25.20;50.20;;;;;;6221716;27;81319;-66
2021/10/07 00:17:21;;;;;;;13.77;9.25;;;25.30;50.20;;;;;;6211239;28;80499;-66
2021/10/07 00:20:21;;;;;;;11.98;9.10;;;25.20;50.20;;;;;;6231139;28;80953;-65
2021/10/07 00:23:26;;;;;;;12.68;9.45;;;25.20;50.20;;;;;;6231132;27;80602;-65
2021/10/07 00:26:26;;;;;;;14.20;9.95;;;25.20;50.10;;;;;;6226992;28;84154;-65
2021/10/07 00:29:47;;;;;;;12.30;9.02;;;25.20;50.20;;;;;;6226406;28;83287;-65
2021/10/07 00:36:12;;;;;;;12.23;9.15;;;25.20;50.70;;;;;;6232179;28;80805;-66
2021/10/07 00:39:13;;;;;;;13.85;9.90;;;25.20;50.50;;;;;;6233263;28;82090;-66
2021/10/07 00:42:13;;;;;;;11.05;9.13;;;25.20;50.50;;;;;;6230288;27;82238;-65
2021/10/07 00:45:14;;;;;;;11.82;9.45;;;25.20;50.60;;;;;;6230594;28;80475;-65
2021/10/07 00:48:14;;;;;;;14.70;9.73;;;25.20;50.60;;;;;;6231662;28;80835;-65
2021/10/07 00:51:15;;;;;;;18.50;11.40;;;25.20;50.50;;;;;;6228260;27;80432;-65
2021/10/07 00:54:15;;;;;;;12.32;9.63;;;25.20;51.30;;;;;;6226535;28;82891;-65
2021/10/07 00:57:19;;;;;;;11.80;9.65;;;25.20;50.30;;;;;;6228510;28;82985;-65
2021/10/07 01:00:20;;;;;;;12.52;9.27;;;25.20;50.30;;;;;;6226123;27;80531;-65
2021/10/07 01:03:20;;;;;;;14.20;8.70;;;25.20;50.60;;;;;;6233769;28;80585;-65
2021/10/07 01:06:21;;;;;;;14.88;9.70;;;25.20;50.70;;;;;;6245461;27;81604;-65
2021/10/07 01:09:21;;;;;;;12.43;9.45;;;25.20;50.50;;;;;;6232001;27;80446;-65
2021/10/07 01:12:22;;;;;;;12.40;8.82;;;25.20;50.70;;;;;;6231769;27;80732;-66
2021/10/07 01:15:22;;;;;;;13.48;9.50;;;25.20;50.60;;;;;;6230738;28;80348;-66
2021/10/07 01:18:23;;;;;;;14.43;9.75;;;25.20;50.30;;;;;;6237541;27;83124;-65
2021/10/07 01:21:25;;;;;;;11.88;8.90;;;25.20;50.50;;;;;;6234082;28;81448;-66
2021/10/07 01:24:25;;;;;;;11.85;9.00;;;25.20;50.50;;;;;;6231070;28;80898;-66
2021/10/07 01:27:26;;;;;;;14.23;10.02;;;25.20;50.30;;;;;;6223214;28;81352;-66
2021/10/07 01:30:26;;;;;;;10.85;9.13;;;25.20;50.20;;;;;;6219872;28;82891;-66
2021/10/07 01:33:27;;;;;;;13.88;9.88;;;25.20;50.10;;;;;;6230509;27;82775;-66
2021/10/07 01:36:27;;;;;;;12.63;9.18;;;25.20;50.00;;;;;;6234249;27;80190;-66
2021/10/07 01:39:28;;;;;;;13.02;9.40;;;25.10;50.10;;;;;;6234720;27;80937;-66
2021/10/07 01:42:28;;;;;;;12.82;9.75;;;25.20;50.00;;;;;;6234297;27;80309;-65
2021/10/07 01:45:29;;;;;;;12.40;9.15;;;25.20;50.00;;;;;;6232669;27;81540;-66
2021/10/07 01:48:29;;;;;;;12.55;9.68;;;25.20;49.90;;;;;;6234246;27;80502;-66
2021/10/07 01:51:30;;;;;;;10.30;8.93;;;25.20;50.00;;;;;;6234146;27;80172;-66
2021/10/07 01:54:30;;;;;;;13.90;9.50;;;25.20;50.10;;;;;;6225580;28;81613;-67
2021/10/07 01:57:31;;;;;;;13.10;9.40;;;25.20;49.80;;;;;;6232431;27;81405;-68
2021/10/07 02:00:32;;;;;;;14.48;9.27;;;25.20;50.00;;;;;;6233641;28;80783;-66
2021/10/07 02:03:32;;;;;;;11.57;8.88;;;25.10;50.20;;;;;;6235571;27;80290;-66
2021/10/07 02:06:36;;;;;;;10.93;8.45;;;25.20;49.90;;;;;;6227027;28;80888;-67
2021/10/07 02:09:36;;;;;;;12.52;9.05;;;25.10;49.90;;;;;;6226839;28;85728;-67
2021/10/07 02:12:37;;;;;;;10.95;9.02;;;25.20;50.30;;;;;;6230294;27;81944;-66
2021/10/07 02:15:37;;;;;;;11.35;8.27;;;25.20;49.90;;;;;;6233313;28;80480;-65
2021/10/07 02:18:38;;;;;;;11.88;9.23;;;25.20;50.00;;;;;;6233946;27;80382;-65
2021/10/07 02:21:38;;;;;;;10.50;8.65;;;25.20;50.00;;;;;;6233168;27;80279;-65
2021/10/07 02:24:39;;;;;;;10.70;8.50;;;25.20;50.20;;;;;;6233727;27;80996;-65
2021/10/07 02:27:39;;;;;;;10.13;8.68;;;25.20;49.90;;;;;;6225023;28;80699;-65
2021/10/07 02:30:40;;;;;;;13.52;9.18;;;25.20;50.30;;;;;;6232836;27;81082;-66
2021/10/07 02:33:41;;;;;;;10.70;8.68;;;25.20;50.00;;;;;;6234032;27;80409;-65
2021/10/07 02:36:41;;;;;;;11.05;8.90;;;25.10;49.70;;;;;;6229744;28;80738;-65
2021/10/07 02:39:42;;;;;;;11.57;9.05;;;25.10;49.80;;;;;;6233686;28;80417;-66
2021/10/07 02:42:42;;;;;;;13.85;8.93;;;25.10;49.60;;;;;;6233863;27;80472;-66
2021/10/07 02:45:43;;;;;;;11.57;8.05;;;25.10;49.70;;;;;;6234285;27;80620;-65
2021/10/07 02:48:44;;;;;;;10.55;8.38;;;25.10;49.70;;;;;;6235716;28;81586;-66
2021/10/07 02:51:45;;;;;;;12.18;8.18;;;25.10;49.90;;;;;;6234037;27;80628;-65
2021/10/07 02:54:45;;;;;;;10.25;7.70;;;25.10;50.00;;;;;;6230112;28;80565;-64
2021/10/07 02:57:46;;;;;;;10.07;7.68;;;25.10;50.10;;;;;;6232171;27;80510;-64
2021/10/07 03:00:47;;;;;;;11.50;8.00;;;25.10;50.20;;;;;;6233191;27;80347;-65
2021/10/07 03:03:47;;;;;;;12.73;7.82;;;25.10;50.30;;;;;;6231062;28;81914;-65
2021/10/07 03:06:48;;;;;;;11.02;7.85;;;25.10;50.30;;;;;;6234239;27;80944;-65
2021/10/07 03:09:48;;;;;;;14.02;7.95;;;25.10;50.40;;;;;;6233252;27;80210;-65
2021/10/07 03:12:49;;;;;;;10.63;7.80;;;25.20;50.50;;;;;;6232712;27;80449;-65
2021/10/07 03:15:49;;;;;;;8.90;7.13;;;25.20;50.50;;;;;;6224254;27;80462;-65
2021/10/07 03:18:50;;;;;;;9.90;7.40;;;25.20;50.50;;;;;;6231615;28;80869;-65
2021/10/07 03:21:50;;;;;;;11.25;8.35;;;25.20;50.50;;;;;;6229972;28;80484;-65
2021/10/07 03:24:51;;;;;;;10.45;7.38;;;25.20;50.50;;;;;;6232028;27;81419;-65
2021/10/07 03:27:51;;;;;;;9.82;7.53;;;25.20;50.50;;;;;;6217171;28;81297;-65
2021/10/07 03:30:52;;;;;;;9.85;7.15;;;25.20;50.50;;;;;;6222493;27;81654;-66
2021/10/07 03:33:52;;;;;;;9.38;7.47;;;25.20;50.50;;;;;;6224536;28;80394;-65
2021/10/07 03:36:53;;;;;;;8.82;7.40;;;25.20;50.50;;;;;;6221501;28;80974;-66
2021/10/07 03:39:53;;;;;;;9.13;7.43;;;25.20;50.60;;;;;;6230189;28;80285;-68
2021/10/07 03:42:54;;;;;;;9.68;7.50;;;25.30;50.60;;;;;;6226352;27;80386;-65
2021/10/07 03:45:54;;;;;;;10.65;7.95;;;25.20;50.60;;;;;;6232150;28;80759;-65
2021/10/07 03:48:55;;;;;;;11.02;7.57;;;25.30;50.70;;;;;;6221704;27;80409;-66
2021/10/07 03:51:55;;;;;;;10.25;7.22;;;25.30;50.70;;;;;;6229363;28;80435;-67
2021/10/07 03:54:56;;;;;;;10.13;6.85;;;25.20;50.70;;;;;;6228584;27;81259;-67
2021/10/07 03:57:56;;;;;;;11.27;7.80;;;25.20;50.80;;;;;;6228060;28;80619;-66
2021/10/07 04:00:57;;;;;;;10.82;7.57;;;25.20;50.90;;;;;;6233015;28;80502;-67
2021/10/07 04:03:57;;;;;;;9.85;6.90;;;25.30;51.20;;;;;;6219728;27;80569;-65
2021/10/07 04:06:58;;;;;;;11.57;7.22;;;25.30;51.10;;;;;;6231609;28;80585;-65
2021/10/07 04:09:58;;;;;;;10.15;7.93;;;25.30;51.40;;;;;;6229780;28;80411;-66
2021/10/07 04:13:00;;;;;;;14.38;7.38;;;25.30;51.40;;;;;;6218496;27;82492;-66
2021/10/07 04:16:00;;;;;;;9.43;7.60;;;25.20;52.00;;;;;;6220918;28;80671;-66
2021/10/07 04:19:01;;;;;;;15.27;7.55;;;25.20;52.00;;;;;;6228154;28;81659;-64
2021/10/07 04:22:01;;;;;;;10.98;6.65;;;25.20;52.10;;;;;;6223126;27;81670;-66
2021/10/07 04:25:02;;;;;;;16.23;8.02;;;25.30;51.80;;;;;;6232416;28;81124;-65
2021/10/07 04:28:04;;;;;;;17.60;8.98;;;25.30;51.60;;;;;;6221844;28;80276;-66
2021/10/07 04:31:05;;;;;;;13.18;8.35;;;25.30;51.60;;;;;;6225145;28;83253;-65
2021/10/07 04:34:07;;;;;;;11.95;8.32;;;25.30;51.60;;;;;;6228063;27;80974;-67
2021/10/07 04:37:07;;;;;;;18.42;10.98;;;25.30;51.60;;;;;;6230106;27;81575;-66
2021/10/07 04:40:08;;;;;;;20.42;12.15;;;25.30;51.80;;;;;;6229325;28;83144;-66
2021/10/07 04:43:08;;;;;;;34.47;15.77;;;25.30;51.90;;;;;;6219150;27;84948;-65
2021/10/07 04:46:09;;;;;;;55.15;22.80;;;25.30;52.30;;;;;;6226909;28;83032;-66
2021/10/07 04:49:09;;;;;;;63.35;28.85;;;25.20;52.50;;;;;;6225038;28;83244;-66
2021/10/07 04:52:10;;;;;;;76.05;30.70;;;25.30;52.40;;;;;;6221251;27;83046;-68
2021/10/07 04:55:10;;;;;;;61.42;27.77;;;25.30;52.50;;;;;;6227652;28;83002;-66
2021/10/07 04:58:11;;;;;;;62.65;26.40;;;25.30;52.50;;;;;;6224944;27;82836;-65
2021/10/07 05:01:15;;;;;;;59.40;27.83;;;25.30;52.40;;;;;;6217000;27;84210;-66
2021/10/07 05:04:15;;;;;;;58.53;26.27;;;25.40;52.50;;;;;;6226667;27;84133;-65
2021/10/07 05:07:16;;;;;;;58.45;26.40;;;25.30;52.30;;;;;;6224508;27;83184;-66
2021/10/07 05:10:16;;;;;;;55.70;25.90;;;25.30;52.10;;;;;;6216675;28;83873;-66
2021/10/07 05:13:17;;;;;;;55.72;24.08;;;25.40;52.00;;;;;;6220012;28;83020;-66
2021/10/07 05:16:17;;;;;;;52.40;23.77;;;25.30;51.80;;;;;;6224681;27;83239;-66
2021/10/07 05:19:18;;;;;;;39.40;20.75;;;25.30;51.60;;;;;;6225470;28;84844;-65
2021/10/07 05:22:18;;;;;;;43.35;20.48;;;25.30;51.70;;;;;;6222311;28;84360;-65
2021/10/07 05:25:19;;;;;;;36.28;18.77;;;25.30;51.70;;;;;;6214380;28;83042;-65
2021/10/07 05:28:19;;;;;;;33.78;17.60;;;25.30;51.30;;;;;;6227898;28;83177;-64
2021/10/07 05:31:20;;;;;;;42.72;17.55;;;25.20;51.30;;;;;;6228296;27;83009;-64
2021/10/07 05:34:21;;;;;;;47.65;23.27;;;25.20;50.90;;;;;;6221982;28;83125;-64
2021/10/07 05:37:21;;;;;;;68.47;30.10;;;25.20;50.50;;;;;;6222275;28;83155;-64
2021/10/07 05:40:22;;;;;;;70.25;30.92;;;25.10;50.10;;;;;;6216528;27;82946;-64
2021/10/07 05:43:22;;;;;;;73.88;31.85;;;25.10;50.40;;;;;;6227197;27;85379;-66
2021/10/07 05:46:24;;;;;;;64.07;29.52;;;25.10;50.30;;;;;;6214465;28;82876;-64
2021/10/07 05:49:27;;;;;;;65.13;26.40;;;25.10;50.10;;;;;;6215649;28;83211;-64
2021/10/07 05:52:27;;;;;;;54.55;24.60;;;25.10;49.90;;;;;;6227772;28;87373;-66
2021/10/07 05:55:28;;;;;;;53.55;23.35;;;25.10;50.20;;;;;;6224758;27;83114;-67
2021/10/07 05:58:30;;;;;;;43.15;21.02;;;25.10;49.70;;;;;;6218572;27;83210;-67
2021/10/07 06:01:30;;;;;;;42.15;20.33;;;25.00;49.60;;;;;;6229410;27;82836;-68
2021/10/07 06:04:31;;;;;;;45.00;20.75;;;25.00;49.80;;;;;;6226952;28;83437;-68
2021/10/07 06:07:31;;;;;;;38.35;18.83;;;25.00;50.30;;;;;;6224156;27;83982;-64
2021/10/07 06:10:32;;;;;;;37.30;18.30;;;25.00;50.30;;;;;;6220365;28;84066;-65
2021/10/07 06:13:32;;;;;;;33.28;18.02;;;25.00;50.60;;;;;;6222034;27;84494;-64
2021/10/07 06:16:34;;;;;;;31.20;16.85;;;25.00;50.60;;;;;;6219666;27;83852;-65
2021/10/07 06:19:37;;;;;;;30.35;14.95;;;25.00;50.50;;;;;;6226557;28;83105;-64
2021/10/07 06:22:38;;;;;;;32.40;15.90;;;25.00;50.50;;;;;;6228485;27;84003;-64
2021/10/07 06:25:38;;;;;;;29.50;15.70;;;25.00;50.60;;;;;;6229154;27;85954;-64
2021/10/07 06:28:39;;;;;;;24.60;14.27;;;25.00;50.10;;;;;;6225119;27;83470;-64
2021/10/07 06:31:40;;;;;;;25.80;13.45;;;25.00;50.30;;;;;;6229916;27;83183;-66
2021/10/07 06:34:40;;;;;;;21.35;12.95;;;24.90;50.40;;;;;;6227799;27;82941;-66
2021/10/07 06:37:41;;;;;;;24.08;12.82;;;24.90;50.30;;;;;;6220475;27;83606;-66
2021/10/07 06:40:41;;;;;;;19.58;11.93;;;24.90;50.40;;;;;;6228122;27;83551;-65
2021/10/07 06:43:43;;;;;;;20.95;12.43;;;24.90;50.20;;;;;;6222696;27;84253;-64
2021/10/07 06:46:43;;;;;;;22.02;11.75;;;24.90;50.40;;;;;;6221554;27;84373;-65
2021/10/07 06:49:44;;;;;;;19.05;10.70;;;24.90;50.20;;;;;;6215950;27;82773;-65
2021/10/07 06:52:44;;;;;;;22.27;11.95;;;24.90;50.10;;;;;;6228918;27;85118;-65
2021/10/07 06:55:45;;;;;;;21.55;11.50;;;24.90;50.40;;;;;;6224147;27;83193;-65
2021/10/07 06:58:45;;;;;;;24.00;11.60;;;24.90;50.10;;;;;;6224199;27;83206;-65
2021/10/07 07:01:46;;;;;;;17.63;11.30;;;24.90;50.00;;;;;;6230984;27;83258;-65
2021/10/07 07:04:46;;;;;;;18.52;11.25;;;24.90;50.00;;;;;;6231190;27;83288;-65
2021/10/07 07:07:47;;;;;;;19.70;11.73;;;24.90;50.20;;;;;;6226663;27;84566;-65
2021/10/07 07:10:47;;;;;;;17.80;11.65;;;24.90;50.30;;;;;;6227284;27;83216;-66
2021/10/07 07:13:48;;;;;;;16.85;11.00;;;24.90;50.70;;;;;;6228552;27;84313;-65
2021/10/07 07:16:49;;;;;;;20.27;11.82;;;24.90;50.70;;;;;;6227182;28;82906;-65
2021/10/07 07:19:49;;;;;;;14.30;10.57;;;24.90;50.00;;;;;;6229410;28;83526;-65
2021/10/07 07:22:50;;;;;;;18.58;11.73;;;24.90;50.60;;;;;;6223040;27;83054;-65
2021/10/07 07:25:50;;;;;;;22.65;12.77;;;24.90;50.20;;;;;;6226577;28;83743;-65
2021/10/07 07:28:51;;;;;;;20.00;12.38;;;24.90;50.30;;;;;;6226843;27;83579;-65
2021/10/07 07:31:51;;;;;;;23.08;11.50;;;24.90;50.10;;;;;;6225899;27;84483;-64
2021/10/07 07:34:52;;;;;;;22.08;13.85;;;25.00;50.10;;;;;;6228423;27;84043;-65
2021/10/07 07:37:52;;;;;;;50.03;18.23;;;24.90;50.30;;;;;;6223407;28;83194;-65
2021/10/07 07:40:53;;;;;;;81.60;28.20;;;24.90;50.70;;;;;;6224539;27;83405;-64
2021/10/07 07:43:53;;;;;;;137.65;37.42;;;24.90;52.00;;;;;;6214051;28;84253;-65
2021/10/07 07:46:54;;;;;;;168.60;48.47;;;24.90;51.80;;;;;;6225823;27;83154;-64
2021/10/07 07:49:54;;;;;;;254.80;68.50;;;25.00;51.70;;;;;;6220528;28;83176;-65
2021/10/07 07:52:55;;;;;;;269.10;68.88;;;25.00;51.60;;;;;;6222969;28;84423;-64
2021/10/07 07:55:56;;;;;;;231.75;66.60;;;25.00;51.60;;;;;;6227601;28;84143;-65
2021/10/07 07:58:56;;;;;;;214.77;63.15;;;25.00;51.70;;;;;;6224982;27;83115;-65
2021/10/07 08:01:57;;;;;;;206.70;59.40;;;25.00;52.60;;;;;;6222411;28;88566;-66
2021/10/07 08:04:57;;;;;;;186.23;54.75;;;25.00;52.40;;;;;;6223506;27;84314;-66
2021/10/07 08:07:58;;;;;;;175.35;51.50;;;25.00;52.90;;;;;;6219469;27;83948;-64
2021/10/07 08:10:58;;;;;;;154.65;48.10;;;25.00;52.30;;;;;;6215015;28;83340;-64
2021/10/07 08:14:00;;;;;;;147.55;48.13;;;25.00;51.90;;;;;;6224995;27;83464;-65
2021/10/07 08:17:01;;;;;;;136.88;44.30;;;25.00;52.10;;;;;;6224366;27;84355;-65
2021/10/07 08:20:02;;;;;;;120.70;40.38;;;25.00;51.80;;;;;;6219324;28;90448;-65
2021/10/07 08:23:03;;;;;;;111.22;39.97;;;25.00;52.10;;;;;;6194596;28;83137;-65
2021/10/07 08:26:03;;;;;;;105.57;35.60;;;25.00;51.60;;;;;;6207396;28;86187;-65
2021/10/07 08:29:04;;;;;;;111.63;35.92;;;25.00;51.70;;;;;;6197938;28;83991;-65
2021/10/07 08:32:06;;;;;;;91.47;31.20;;;25.00;51.80;;;;;;6201056;28;84336;-65
2021/10/07 12:14:42;;;;;;;138.27;53.63;;;24.30;49.90;;;;;;6255801;27;76029;-67
2021/10/07 12:17:43;;;;;;;108.95;40.00;;;24.80;48.10;;;;;;6217622;28;83004;-68
2021/10/07 12:20:44;;;;;;;81.82;32.17;;;25.00;47.60;;;;;;6226933;27;84360;-68
2021/10/07 12:23:45;;;;;;;80.20;32.17;;;25.10;46.30;;;;;;6224136;28;84412;-68
2021/10/07 12:26:46;;;;;;;71.30;27.60;;;25.20;46.10;;;;;;6243309;27;83124;-67
2021/10/07 12:29:46;;;;;;;61.67;25.42;;;25.30;46.10;;;;;;6242494;27;83230;-69
2021/10/07 12:32:47;;;;;;;60.20;24.08;;;25.40;45.90;;;;;;6241924;28;83423;-66
2021/10/07 12:35:47;;;;;;;49.20;20.42;;;25.50;46.30;;;;;;6242672;28;82867;-67
2021/10/07 12:38:48;;;;;;;50.40;19.73;;;25.50;45.60;;;;;;6243343;27;82788;-67
2021/10/07 12:41:48;;;;;;;40.13;19.55;;;25.60;45.50;;;;;;6238188;27;83750;-67
2021/10/07 12:44:49;;;;;;;39.78;17.80;;;25.50;45.40;;;;;;6229305;28;83214;-68
2021/10/07 12:47:49;;;;;;;32.83;15.13;;;25.60;45.30;;;;;;6235561;27;84306;-67
2021/10/07 12:50:50;;;;;;;32.97;15.80;;;25.60;44.90;;;;;;6240658;28;83353;-66
2021/10/07 12:53:50;;;;;;;26.38;10.77;;;25.60;44.30;;;;;;6241783;28;84102;-65
2021/10/07 12:56:51;;;;;;;18.38;9.32;;;25.60;44.20;;;;;;6244388;27;84028;-66
2021/10/07 12:59:51;;;;;;;15.50;7.50;;;25.60;42.10;;;;;;6243959;27;83521;-65
2021/10/07 13:02:52;;;;;;;15.98;7.03;;;25.60;41.30;;;;;;6246039;27;80798;-67
2021/10/07 13:05:53;;;;;;;13.75;6.80;;;25.50;38.90;;;;;;6242227;27;81686;-69
2021/10/07 13:08:53;;;;;;;14.77;7.97;;;25.50;38.70;;;;;;6239884;28;82880;-67
2021/10/07 13:11:54;;;;;;;13.52;6.38;;;25.50;39.40;;;;;;6244234;28;80784;-67
2021/10/07 13:14:54;;;;;;;14.88;7.15;;;25.50;40.70;;;;;;6227244;28;82342;-67
2021/10/07 13:17:55;;;;;;;12.95;6.70;;;25.50;40.30;;;;;;6225491;28;80612;-67
2021/10/07 13:20:55;;;;;;;12.48;6.05;;;25.50;40.10;;;;;;6228363;28;81351;-68
2021/10/07 13:23:56;;;;;;;12.80;6.55;;;25.60;39.90;;;;;;6228773;28;80459;-68
2021/10/07 13:27:01;;;;;;;9.93;6.72;;;25.50;40.00;;;;;;6227575;28;81421;-66
2021/10/07 13:30:02;;;;;;;15.77;6.93;;;25.60;40.50;;;;;;6224773;28;80910;-66
2021/10/07 13:33:02;;;;;;;15.82;7.63;;;25.60;41.10;;;;;;6226961;28;80849;-67
2021/10/07 13:36:03;;;;;;;12.77;6.47;;;25.60;41.80;;;;;;6225976;28;80299;-67
2021/10/07 13:39:03;;;;;;;16.80;6.60;;;25.60;41.40;;;;;;6230650;28;81033;-67
2021/10/07 13:42:04;;;;;;;11.48;6.38;;;25.60;41.20;;;;;;6227952;28;80335;-68
2021/10/07 13:45:04;;;;;;;11.95;6.97;;;25.70;41.20;;;;;;6225677;28;80514;-68
2021/10/07 13:48:05;;;;;;;23.17;7.53;;;25.70;40.90;;;;;;6232549;28;80514;-68
2021/10/07 13:51:05;;;;;;;17.00;7.82;;;25.60;41.20;;;;;;6229827;28;80707;-68
2021/10/07 13:54:06;;;;;;;10.93;6.45;;;25.60;41.30;;;;;;6231454;28;81970;-67
2021/10/07 13:57:06;;;;;;;10.88;7.13;;;25.60;40.60;;;;;;6225000;28;80160;-67
2021/10/07 14:00:07;;;;;;;11.80;6.40;;;25.60;40.90;;;;;;6227123;28;81551;-68
2021/10/07 14:03:08;;;;;;;16.83;6.78;;;25.60;41.00;;;;;;6227197;28;82439;-67
2021/10/07 14:06:08;;;;;;;11.85;7.10;;;25.60;41.40;;;;;;6228228;28;81283;-67
2021/10/07 14:09:09;;;;;;;13.23;6.35;;;25.60;41.30;;;;;;6229105;28;80876;-67
2021/10/07 14:12:09;;;;;;;11.25;6.30;;;25.60;41.30;;;;;;6231934;27;80562;-67
2021/10/07 14:15:10;;;;;;;13.38;6.95;;;25.60;41.30;;;;;;6244770;28;80539;-66
2021/10/07 14:18:10;;;;;;;13.27;7.18;;;25.60;41.30;;;;;;6224320;28;80632;-67
2021/10/07 14:21:13;;;;;;;13.13;6.82;;;25.60;41.10;;;;;;6226864;28;80533;-67
2021/10/07 14:24:13;;;;;;;12.75;6.78;;;25.60;40.70;;;;;;6225337;28;82886;-67
2021/10/07 14:27:14;;;;;;;13.35;7.07;;;25.60;40.90;;;;;;6229872;28;80620;-67
2021/10/07 14:30:14;;;;;;;15.85;6.25;;;25.60;41.10;;;;;;6229834;28;80834;-67
2021/10/07 14:33:15;;;;;;;16.33;6.38;;;25.70;41.00;;;;;;6228404;28;80887;-67
2021/10/07 14:36:16;;;;;;;16.77;6.68;;;25.70;41.00;;;;;;6227885;28;80284;-67
2021/10/07 14:39:16;;;;;;;14.43;6.30;;;25.70;40.70;;;;;;6225805;28;80083;-67
2021/10/07 14:42:16;;;;;;;40.33;7.15;;;25.70;40.60;;;;;;6222326;28;82547;-67
2021/10/07 14:45:17;;;;;;;16.42;8.02;;;25.60;41.10;;;;;;6230371;28;80660;-67
2021/10/07 14:48:17;;;;;;;26.50;7.85;;;25.60;40.70;;;;;;6230040;28;80695;-67
2021/10/07 14:51:18;;;;;;;18.95;7.32;;;25.60;40.50;;;;;;6228219;28;80907;-66
2021/10/07 14:54:19;;;;;;;22.02;7.50;;;25.60;40.50;;;;;;6225660;28;80487;-66
2021/10/07 14:57:19;;;;;;;14.07;7.50;;;25.60;40.40;;;;;;6227692;28;80848;-66
2021/10/07 15:00:20;;;;;;;13.02;7.38;;;25.60;40.30;;;;;;6229682;28;81542;-68
2021/10/07 15:03:20;;;;;;;15.80;7.03;;;25.60;40.20;;;;;;6220166;28;80409;-67
2021/10/07 15:06:21;;;;;;;16.00;7.07;;;25.60;40.40;;;;;;6224386;28;80405;-67
2021/10/07 15:09:21;;;;;;;19.08;8.00;;;25.60;40.20;;;;;;6227703;28;82941;-67
2021/10/07 15:12:22;;;;;;;15.65;7.00;;;25.60;40.50;;;;;;6233325;28;80835;-66
2021/10/07 15:15:22;;;;;;;15.57;6.78;;;25.50;39.90;;;;;;6218840;28;80486;-67
2021/10/07 15:18:25;;;;;;;17.23;6.93;;;25.50;40.60;;;;;;6230866;28;80637;-66
2021/10/07 15:21:33;;;;;;;11.18;6.43;;;25.50;39.70;;;;;;6214803;28;80256;-67
2021/10/07 15:24:34;;;;;;;20.52;7.10;;;25.50;39.80;;;;;;6232180;28;80799;-66
2021/10/07 15:27:34;;;;;;;13.38;6.85;;;25.50;39.90;;;;;;6230786;28;82370;-66
2021/10/07 15:30:35;;;;;;;18.45;6.85;;;25.50;40.70;;;;;;6227969;28;81765;-66
2021/10/07 15:33:35;;;;;;;13.95;6.95;;;25.50;40.00;;;;;;6221336;28;80551;-65
2021/10/07 15:36:36;;;;;;;19.63;7.03;;;25.40;39.60;;;;;;6221721;28;81005;-66
2021/10/07 15:39:37;;;;;;;15.13;6.97;;;25.40;39.50;;;;;;6221147;28;81119;-66
2021/10/07 15:42:37;;;;;;;17.80;6.75;;;25.40;40.30;;;;;;6231939;28;80734;-67
2021/10/07 15:45:38;;;;;;;9.85;6.63;;;25.40;40.70;;;;;;6231550;28;82697;-66
2021/10/07 15:48:39;;;;;;;13.88;6.85;;;25.40;41.00;;;;;;6232166;28;80542;-67
2021/10/07 15:51:40;;;;;;;13.98;6.10;;;25.30;40.10;;;;;;6226534;28;80104;-67
2021/10/07 15:54:40;;;;;;;18.95;6.75;;;25.30;40.80;;;;;;6220682;28;81781;-68
2021/10/07 15:57:42;;;;;;;25.30;7.75;;;25.30;40.00;;;;;;6224050;28;80465;-67
2021/10/07 16:00:43;;;;;;;16.05;7.55;;;25.30;39.50;;;;;;6231784;28;82083;-68
2021/10/07 16:03:43;;;;;;;16.75;7.22;;;25.30;39.20;;;;;;6230028;28;80700;-68
2021/10/07 16:06:44;;;;;;;22.05;8.02;;;25.30;39.30;;;;;;6227649;28;82195;-67
2021/10/07 16:09:45;;;;;;;111.78;44.25;;;25.30;39.90;;;;;;6222801;28;81885;-67
2021/10/07 16:12:45;;;;;;;141.98;56.22;;;25.30;40.90;;;;;;6217534;28;83302;-69
2021/10/07 16:15:46;;;;;;;146.07;50.90;;;25.30;41.00;;;;;;6220378;28;83161;-68
2021/10/07 16:18:47;;;;;;;103.05;39.50;;;25.40;41.10;;;;;;6217276;28;83981;-68
2021/10/07 16:21:50;;;;;;;89.95;34.92;;;25.40;41.40;;;;;;6214627;28;83737;-68
2021/10/07 16:24:51;;;;;;;100.13;38.83;;;25.40;41.60;;;;;;6219901;28;84917;-67
2021/10/07 16:27:51;;;;;;;91.60;33.97;;;25.40;41.90;;;;;;6220007;28;83926;-67
2021/10/07 16:30:52;;;;;;;84.45;35.13;;;25.40;42.10;;;;;;6227841;28;82798;-67
2021/10/07 16:33:52;;;;;;;91.20;37.08;;;25.40;42.00;;;;;;6226613;28;84209;-67
2021/10/07 16:36:53;;;;;;;79.72;30.38;;;25.40;42.20;;;;;;6222186;28;83406;-66
2021/10/07 16:39:54;;;;;;;77.05;32.28;;;25.40;42.40;;;;;;6221077;28;83801;-67
2021/10/07 16:42:54;;;;;;;85.38;31.45;;;25.40;42.60;;;;;;6224521;28;83810;-67
2021/10/07 16:45:55;;;;;;;75.05;27.38;;;25.40;42.60;;;;;;6224322;28;85432;-68
2021/10/07 16:48:56;;;;;;;83.57;28.85;;;25.40;43.40;;;;;;6229620;28;84290;-68
2021/10/07 16:51:57;;;;;;;59.53;25.42;;;25.40;43.60;;;;;;6219217;28;83279;-67
2021/10/07 16:54:57;;;;;;;64.07;24.00;;;25.40;44.00;;;;;;6225076;28;83358;-67
2021/10/07 16:57:58;;;;;;;57.90;23.15;;;25.40;44.10;;;;;;6222338;28;83727;-67
2021/10/07 17:00:58;;;;;;;57.20;23.10;;;25.40;44.20;;;;;;6222795;28;85122;-68
2021/10/07 17:03:59;;;;;;;48.33;21.33;;;25.40;44.50;;;;;;6223789;28;83689;-66
2021/10/07 17:06:59;;;;;;;48.75;19.90;;;25.50;44.60;;;;;;6216579;28;83046;-65
2021/10/07 17:10:00;;;;;;;44.85;20.08;;;25.50;44.60;;;;;;6220927;28;83719;-65
2021/10/07 17:13:00;;;;;;;49.05;21.52;;;25.50;44.70;;;;;;6225997;28;83111;-66
2021/10/07 17:16:01;;;;;;;44.35;17.85;;;25.40;44.60;;;;;;6225387;28;82960;-67
2021/10/07 17:19:02;;;;;;;43.90;17.85;;;25.40;44.80;;;;;;6219934;28;84198;-66
2021/10/07 17:22:02;;;;;;;37.08;17.42;;;25.50;45.20;;;;;;6229413;28;83281;-66
2021/10/07 17:25:03;;;;;;;44.20;16.25;;;25.50;45.60;;;;;;6227322;28;83054;-66
2021/10/07 17:28:03;;;;;;;34.05;15.15;;;25.50;45.70;;;;;;6222890;28;83209;-64
2021/10/07 17:31:04;;;;;;;38.05;15.40;;;25.50;45.60;;;;;;6223126;28;83894;-65
2021/10/07 17:34:04;;;;;;;34.00;15.95;;;25.50;45.60;;;;;;6228070;28;85250;-66
2021/10/07 17:37:05;;;;;;;30.70;13.73;;;25.50;45.60;;;;;;6221578;28;85259;-64
2021/10/07 17:40:05;;;;;;;30.13;14.35;;;25.50;45.70;;;;;;6229200;28;83237;-65
2021/10/07 17:43:06;;;;;;;26.65;14.02;;;25.50;45.60;;;;;;6229163;28;84386;-66
2021/10/07 17:46:07;;;;;;;27.27;12.20;;;25.50;45.60;;;;;;6229729;28;82993;-66
2021/10/07 17:49:07;;;;;;;30.75;14.38;;;25.50;45.40;;;;;;6229199;28;85487;-65
2021/10/07 17:52:08;;;;;;;153.27;58.72;;;25.50;45.30;;;;;;6225695;28;83346;-66
2021/10/07 17:55:08;;;;;;;104.28;45.85;;;25.50;45.30;;;;;;6219483;28;82934;-66
2021/10/07 17:58:09;;;;;;;105.45;40.05;;;25.50;45.30;;;;;;6229519;28;82954;-66
2021/10/07 18:01:12;;;;;;;120.60;42.70;;;25.50;45.30;;;;;;6226130;28;84176;-66
2021/10/07 18:04:12;;;;;;;103.00;39.30;;;25.50;45.90;;;;;;6220917;28;83280;-69
2021/10/07 18:07:13;;;;;;;108.47;39.08;;;25.50;46.00;;;;;;6223739;28;83357;-67
2021/10/07 18:10:14;;;;;;;86.78;34.90;;;25.50;46.10;;;;;;6224271;28;83159;-67
2021/10/07 18:13:14;;;;;;;73.90;30.83;;;25.50;46.00;;;;;;6226352;28;83227;-66
2021/10/07 18:16:15;;;;;;;77.25;30.00;;;25.40;46.10;;;;;;6225599;28;83240;-65
2021/10/07 18:19:15;;;;;;;58.50;26.92;;;25.50;45.90;;;;;;6224499;28;83187;-66
2021/10/07 18:22:16;;;;;;;64.63;26.13;;;25.40;45.80;;;;;;6219879;28;85140;-67
2021/10/07 18:25:18;;;;;;;59.65;23.38;;;25.50;45.70;;;;;;6215331;28;84631;-65
2021/10/07 18:28:22;;;;;;;63.25;22.90;;;25.50;45.60;;;;;;6228525;28;83152;-65
2021/10/07 18:31:22;;;;;;;50.50;21.05;;;25.50;45.40;;;;;;6227348;28;84585;-66
2021/10/07 18:34:23;;;;;;;44.50;19.55;;;25.50;45.40;;;;;;6227173;28;83121;-64
2021/10/07 18:37:24;;;;;;;41.35;18.27;;;25.50;45.50;;;;;;6217280;28;83244;-66
2021/10/07 18:40:24;;;;;;;44.15;18.40;;;25.50;45.70;;;;;;6225841;28;85706;-69
2021/10/07 18:43:25;;;;;;;41.00;17.42;;;25.50;45.60;;;;;;6221521;28;83816;-64
2021/10/07 18:46:25;;;;;;;33.55;15.40;;;25.50;45.40;;;;;;6220726;28;83181;-65
2021/10/07 18:49:26;;;;;;;41.60;15.63;;;25.50;44.90;;;;;;6224509;28;83251;-65
2021/10/07 18:52:27;;;;;;;32.53;14.27;;;25.50;44.20;;;;;;6224720;28;83102;-67
2021/10/07 18:55:27;;;;;;;28.35;14.35;;;25.50;44.40;;;;;;6225875;28;83200;-66
2021/10/07 18:58:28;;;;;;;30.92;14.43;;;25.50;44.50;;;;;;6225301;28;84382;-66
2021/10/07 19:01:28;;;;;;;35.08;14.63;;;25.50;44.40;;;;;;6227717;28;87841;-66
2021/10/07 19:04:29;;;;;;;26.30;12.77;;;25.50;44.70;;;;;;6221357;28;83103;-66